Time,TemperatureF,DewpointF,PressureIn,WindDirection,WindDirectionDegrees,WindSpeedMPH,WindSpeedGustMPH,Humidity,HourlyPrecipIn,Conditions,Clouds,dailyrainin,SoftwareType,DateUTC
2013-09-03 00:00:00,84.0,76.4,29.81,WSW,247,0.0,1.0,78,0.00,,,-99.99,WeatherLink 5.6,2013-09-03 05:00:00,
2013-09-03 00:30:00,84.0,76.8,29.81,SSW,202,0.0,1.0,79,0.00,,,-99.99,WeatherLink 5.6,2013-09-03 05:30:00,
2013-09-03 01:00:00,83.6,77.1,29.82,SW,225,0.0,1.0,81,0.00,,,-99.99,WeatherLink 5.6,2013-09-03 06:00:00,
2013-09-03 01:30:00,83.6,77.1,29.82,SW,225,0.0,1.0,81,0.00,,,-99.99,WeatherLink 5.6,2013-09-03 06:30:00,
2013-09-03 02:00:00,83.6,77.9,29.81,SW,225,0.0,1.0,83,0.00,,,-99.99,WeatherLink 5.6,2013-09-03 07:00:00,
2013-09-03 02:30:00,83.6,77.1,29.81,WSW,247,0.0,1.0,81,0.00,,,-99.99,WeatherLink 5.6,2013-09-03 07:30:00,
2013-09-03 03:00:00,81.6,77.4,29.81,West,270,1.0,7.0,87,0.03,,,-99.99,WeatherLink 5.6,2013-09-03 08:00:00,
2013-09-03 03:30:00,80.7,77.8,29.82,WSW,247,0.0,3.0,91,0.03,,,-99.99,WeatherLink 5.6,2013-09-03 08:30:00,
2013-09-03 04:00:00,80.1,77.2,29.82,WSW,247,0.0,10.0,91,0.00,,,-99.99,WeatherLink 5.6,2013-09-03 09:00:00,
2013-09-03 04:30:00,80.1,77.2,29.82,West,270,0.0,5.0,91,0.00,,,-99.99,WeatherLink 5.6,2013-09-03 09:30:00,
2013-09-03 05:00:00,79.8,76.9,29.83,West,270,1.0,5.0,91,0.00,,,-99.99,WeatherLink 5.6,2013-09-03 10:00:00,
2013-09-03 05:30:00,79.8,75.9,29.83,West,270,2.0,11.0,88,0.00,,,-99.99,WeatherLink 5.6,2013-09-03 10:30:00,
2013-09-03 06:00:00,79.8,76.3,29.83,WSW,247,2.0,7.0,89,0.00,,,-99.99,WeatherLink 5.6,2013-09-03 11:00:00,
2013-09-03 06:30:00,79.8,75.6,29.84,West,270,2.0,10.0,87,0.00,,,-99.99,WeatherLink 5.6,2013-09-03 11:30:00,
2013-09-03 07:00:00,79.4,75.9,29.85,West,270,1.0,10.0,89,0.00,,,-99.99,WeatherLink 5.6,2013-09-03 12:00:00,
2013-09-03 07:30:00,79.4,75.9,29.85,West,270,1.0,7.0,89,0.00,,,-99.99,WeatherLink 5.6,2013-09-03 12:30:00,
2013-09-03 08:00:00,79.6,75.7,29.86,WNW,292,1.0,7.0,88,0.00,,,-99.99,WeatherLink 5.6,2013-09-03 13:00:00,
2013-09-03 08:30:00,80.9,76.3,29.86,WNW,292,1.0,6.0,86,0.00,,,-99.99,WeatherLink 5.6,2013-09-03 13:30:00,
2013-09-03 09:00:00,83.4,75.8,29.86,NW,315,1.0,7.0,78,0.00,,,-99.99,WeatherLink 5.6,2013-09-03 14:00:00,
2013-09-03 09:30:00,86.1,77.2,29.87,NNW,337,0.0,4.0,75,0.00,,,-99.99,WeatherLink 5.6,2013-09-03 14:30:00,
2013-09-03 10:00:00,89.3,77.3,29.88,WNW,292,0.0,1.0,68,0.00,,,-99.99,WeatherLink 5.6,2013-09-03 15:00:00,
2013-09-03 10:30:00,91.0,76.2,29.89,NNW,337,0.0,4.0,62,0.00,,,-99.99,WeatherLink 5.6,2013-09-03 15:30:00,
2013-09-03 11:00:00,91.4,77.0,29.88,West,270,1.0,6.0,63,0.00,,,-99.99,WeatherLink 5.6,2013-09-03 16:00:00,
2013-09-03 11:30:00,88.0,77.4,29.88,SSW,202,4.0,12.0,71,0.00,,,-99.99,WeatherLink 5.6,2013-09-03 16:30:00,
2013-09-03 12:00:00,91.2,78.7,29.86,SSW,202,4.0,11.0,67,0.00,,,-99.99,WeatherLink 5.6,2013-09-03 17:00:00,
2013-09-03 12:30:00,90.5,77.6,29.86,SSW,202,6.0,13.0,66,0.00,,,-99.99,WeatherLink 5.6,2013-09-03 17:30:00,
2013-09-03 13:00:00,90.1,78.6,29.84,SSW,202,6.0,14.0,69,0.00,,,-99.99,WeatherLink 5.6,2013-09-03 18:00:00,
2013-09-03 13:30:00,89.3,78.7,29.83,SSW,202,6.0,14.0,71,0.00,,,-99.99,WeatherLink 5.6,2013-09-03 18:30:00,
2013-09-03 14:00:00,90.5,78.5,29.82,SSW,202,5.0,13.0,68,0.00,,,-99.99,WeatherLink 5.6,2013-09-03 19:00:00,
2013-09-03 14:30:00,87.6,78.3,29.80,SSW,202,6.0,13.0,74,0.00,,,-99.99,WeatherLink 5.6,2013-09-03 19:30:00,
2013-09-03 15:00:00,86.3,77.8,29.80,SSW,202,4.0,12.0,76,0.00,,,-99.99,WeatherLink 5.6,2013-09-03 20:00:00,
2013-09-03 15:30:00,86.1,76.8,29.80,SSW,202,3.0,9.0,74,0.00,,,-99.99,WeatherLink 5.6,2013-09-03 20:30:00,
2013-09-03 16:00:00,86.5,76.0,29.80,WSW,247,3.0,9.0,71,0.00,,,-99.99,WeatherLink 5.6,2013-09-03 21:00:00,
2013-09-03 16:30:00,90.3,76.9,29.79,SSW,202,4.0,15.0,65,0.00,,,-99.99,WeatherLink 5.6,2013-09-03 21:30:00,
2013-09-03 17:00:00,88.4,77.8,29.80,SW,225,4.0,13.0,71,0.00,,,-99.99,WeatherLink 5.6,2013-09-03 22:00:00,
2013-09-03 17:30:00,86.5,77.2,29.81,SSW,202,4.0,11.0,74,0.00,,,-99.99,WeatherLink 5.6,2013-09-03 22:30:00,
2013-09-03 18:00:00,85.5,77.5,29.82,SSW,202,3.0,11.0,77,0.00,,,-99.99,WeatherLink 5.6,2013-09-03 23:00:00,
2013-09-03 18:30:00,83.4,76.6,29.87,West,270,3.0,18.0,80,0.00,,,-99.99,WeatherLink 5.6,2013-09-03 23:30:00,
2013-09-03 19:00:00,75.8,71.3,29.88,NE,45,8.0,22.0,86,0.05,,,-99.99,WeatherLink 5.6,2013-09-04 00:00:00,
2013-09-03 19:30:00,73.0,70.2,29.83,SSE,157,4.0,18.0,91,0.24,,,-99.99,WeatherLink 5.6,2013-09-04 00:30:00,
2013-09-03 20:00:00,73.2,69.4,29.83,South,180,2.0,10.0,88,0.19,,,-99.99,WeatherLink 5.6,2013-09-04 01:00:00,
2013-09-03 20:30:00,73.7,71.5,29.83,SSE,157,0.0,1.0,93,0.00,,,-99.99,WeatherLink 5.6,2013-09-04 01:30:00,
2013-09-03 21:00:00,74.2,72.4,29.86,North,-999,0.0,0.0,94,0.00,,,-99.99,WeatherLink 5.6,2013-09-04 02:00:00,
2013-09-03 21:30:00,74.0,72.2,29.89,North,-999,0.0,0.0,94,0.00,,,-99.99,WeatherLink 5.6,2013-09-04 02:30:00,
2013-09-03 22:00:00,73.2,71.4,29.88,ENE,67,0.0,5.0,94,0.01,,,-99.99,WeatherLink 5.6,2013-09-04 03:00:00,
2013-09-03 22:30:00,73.5,72.0,29.87,ENE,67,0.0,1.0,95,0.01,,,-99.99,WeatherLink 5.6,2013-09-04 03:30:00,
2013-09-03 23:00:00,73.7,72.2,29.87,ENE,67,0.0,1.0,95,0.00,,,-99.99,WeatherLink 5.6,2013-09-04 04:00:00,
2013-09-03 23:30:00,73.7,72.5,29.86,ENE,67,0.0,3.0,96,0.00,,,-99.99,WeatherLink 5.6,2013-09-04 04:30:00,